Time;durP1;ratioP1;P1;durP2;ratioP2;P2;SDS_P1;SDS_P2;PMS_P1;PMS_P2;Temp;Humidity;BMP_temperature;BMP_pressure;BME280_temperature;BME280_humidity;BME280_pressure;Samples;Min_cycle;Max_cycle;Signal;HPM_P1;HPM_P2
2022/12/03 00:01:21;;;;;;;14.37;10.27;;;1.80;99.90;;;;;;5016046;28;20185;-83
2022/12/03 00:03:47;;;;;;;13.40;9.70;;;1.80;99.90;;;;;;5000343;28;20540;-84
2022/12/03 00:06:13;;;;;;;12.67;8.80;;;1.80;99.90;;;;;;4983987;28;20180;-83
2022/12/03 00:08:38;;;;;;;12.57;9.27;;;1.80;99.90;;;;;;5033855;28;20222;-83
2022/12/03 00:11:04;;;;;;;14.17;10.00;;;1.80;99.90;;;;;;5016204;28;20189;-83
2022/12/03 00:13:29;;;;;;;13.30;9.47;;;1.80;99.90;;;;;;5033930;28;20187;-83
2022/12/03 00:15:55;;;;;;;16.23;10.80;;;1.80;99.90;;;;;;4999834;28;20657;-83
2022/12/03 00:18:20;;;;;;;16.63;10.17;;;1.80;99.90;;;;;;4983467;28;20251;-83
2022/12/03 00:20:46;;;;;;;17.23;10.30;;;1.70;99.90;;;;;;5033709;28;20241;-84
2022/12/03 00:23:12;;;;;;;11.97;9.40;;;1.70;99.90;;;;;;5002624;28;20187;-84
2022/12/03 00:25:37;;;;;;;15.33;10.47;;;1.70;99.90;;;;;;5037274;28;20668;-84
2022/12/03 00:28:03;;;;;;;16.47;10.40;;;1.60;99.90;;;;;;5003438;28;20184;-84
2022/12/03 00:30:28;;;;;;;14.80;9.93;;;1.60;99.90;;;;;;5019777;28;20292;-83
2022/12/03 00:32:54;;;;;;;14.10;9.70;;;1.60;99.90;;;;;;5019793;28;20194;-84
2022/12/03 00:35:20;;;;;;;14.10;9.57;;;1.60;99.90;;;;;;5020299;28;20185;-83
2022/12/03 00:37:45;;;;;;;14.60;10.20;;;1.60;99.90;;;;;;5037333;28;20212;-84
2022/12/03 00:40:11;;;;;;;14.50;10.20;;;1.60;99.90;;;;;;5020012;28;20184;-83
2022/12/03 00:42:37;;;;;;;13.50;10.18;;;1.60;99.90;;;;;;5003406;28;20273;-83
2022/12/03 00:45:03;;;;;;;15.23;9.77;;;1.70;99.90;;;;;;5020212;28;20238;-83
2022/12/03 00:47:28;;;;;;;18.77;12.43;;;1.60;99.90;;;;;;5019438;28;20179;-83
2022/12/03 00:49:54;;;;;;;16.67;10.50;;;1.60;99.90;;;;;;5003712;28;20433;-84
2022/12/03 00:52:19;;;;;;;13.13;9.70;;;1.60;99.90;;;;;;4987647;28;20183;-83
2022/12/03 00:54:45;;;;;;;14.43;9.43;;;1.60;99.90;;;;;;5003365;28;20196;-84
2022/12/03 00:57:11;;;;;;;13.63;9.20;;;1.60;99.90;;;;;;5019614;28;20581;-84
2022/12/03 00:59:36;;;;;;;15.13;9.93;;;1.60;99.90;;;;;;5019284;28;20271;-83
2022/12/03 01:02:02;;;;;;;14.70;10.17;;;1.60;99.90;;;;;;5003471;28;20452;-84
2022/12/03 01:04:28;;;;;;;15.03;10.23;;;1.70;99.90;;;;;;5019751;28;20223;-84
2022/12/03 01:06:53;;;;;;;14.60;9.70;;;1.80;99.90;;;;;;5019483;28;20248;-83
2022/12/03 01:09:19;;;;;;;14.60;9.53;;;1.80;99.90;;;;;;5004133;28;20245;-84
2022/12/03 01:11:45;;;;;;;13.67;9.93;;;1.80;99.90;;;;;;5019409;28;20543;-84
2022/12/03 01:14:14;;;;;;;15.83;10.40;;;1.80;99.90;;;;;;5020102;28;20181;-83
2022/12/03 01:16:40;;;;;;;13.25;9.85;;;1.80;99.90;;;;;;5019461;28;20180;-83
2022/12/03 01:19:07;;;;;;;14.57;10.80;;;1.80;99.90;;;;;;5037965;28;20232;-84
2022/12/03 01:21:33;;;;;;;14.50;10.27;;;1.80;99.90;;;;;;5037110;28;20173;-83
2022/12/03 01:23:59;;;;;;;16.25;10.50;;;1.80;99.90;;;;;;5019704;28;20210;-84
2022/12/03 01:26:25;;;;;;;14.87;9.80;;;1.90;99.90;;;;;;5019304;28;20184;-84
2022/12/03 01:28:51;;;;;;;12.33;8.60;;;1.80;99.90;;;;;;5003067;28;20744;-84
2022/12/03 01:34:01;;;;;;;13.60;8.93;;;1.90;99.90;;;;;;5036358;28;20260;-84
2022/12/03 01:36:28;;;;;;;15.33;10.43;;;1.80;99.90;;;;;;5036757;28;20208;-83
2022/12/03 01:38:53;;;;;;;13.10;8.48;;;1.90;99.90;;;;;;5020116;28;20564;-84
2022/12/03 01:41:21;;;;;;;14.33;9.57;;;1.90;99.90;;;;;;5003186;28;20197;-84
2022/12/03 01:43:47;;;;;;;13.93;9.50;;;2.00;99.90;;;;;;5018788;28;21127;-84
2022/12/03 01:46:17;;;;;;;14.23;10.02;;;2.00;99.90;;;;;;5036749;28;20543;-84
2022/12/03 01:48:44;;;;;;;13.85;9.73;;;2.00;99.90;;;;;;5018739;28;20189;-84
2022/12/03 01:51:12;;;;;;;13.27;8.90;;;2.00;99.90;;;;;;5002238;28;20196;-84
2022/12/03 01:53:37;;;;;;;12.95;9.35;;;2.00;99.90;;;;;;5002709;28;20188;-83
2022/12/03 01:56:03;;;;;;;15.63;10.33;;;2.00;99.90;;;;;;5003023;28;20634;-84
2022/12/03 01:58:29;;;;;;;16.40;9.47;;;2.00;99.90;;;;;;5002696;28;20181;-83
2022/12/03 02:01:00;;;;;;;15.55;9.50;;;2.00;99.90;;;;;;5036634;28;20187;-84
2022/12/03 02:03:26;;;;;;;11.65;8.40;;;2.00;99.90;;;;;;5036687;28;20163;-84
2022/12/03 02:05:52;;;;;;;11.65;8.48;;;2.00;99.90;;;;;;4985652;28;20206;-83
2022/12/03 02:08:35;;;;;;;13.00;8.85;;;1.90;99.90;;;;;;5018412;28;20681;-83
2022/12/03 02:11:06;;;;;;;13.50;8.63;;;2.00;99.90;;;;;;5018805;28;20184;-84
2022/12/03 02:13:32;;;;;;;10.85;7.78;;;2.00;99.90;;;;;;5018179;28;20191;-83
2022/12/03 02:15:58;;;;;;;11.90;8.70;;;1.90;99.90;;;;;;5020141;28;20189;-84
2022/12/03 02:18:24;;;;;;;12.47;8.60;;;2.00;99.90;;;;;;5038453;28;20534;-84
2022/12/03 02:20:59;;;;;;;12.95;9.50;;;2.00;99.90;;;;;;5018929;28;20955;-83
2022/12/03 02:23:34;;;;;;;12.48;8.18;;;1.90;99.90;;;;;;5018655;28;20188;-84
2022/12/03 02:26:00;;;;;;;11.65;9.18;;;2.00;99.90;;;;;;5018783;28;20572;-84
2022/12/03 02:28:26;;;;;;;12.20;8.23;;;2.00;99.90;;;;;;5018354;28;20183;-84
2022/12/03 02:30:51;;;;;;;11.80;7.93;;;2.00;99.90;;;;;;5002114;28;20323;-83
2022/12/03 02:33:17;;;;;;;12.83;9.23;;;2.00;99.90;;;;;;5002070;28;20186;-84
2022/12/03 02:35:43;;;;;;;13.93;9.13;;;2.10;99.90;;;;;;5001629;28;20622;-84
2022/12/03 02:38:25;;;;;;;12.85;8.07;;;2.10;99.90;;;;;;5018237;28;20188;-84
2022/12/03 02:40:54;;;;;;;14.05;7.80;;;2.20;99.90;;;;;;5035601;28;20328;-84
2022/12/03 02:43:21;;;;;;;11.18;7.95;;;2.10;99.90;;;;;;5019440;28;20217;-84
2022/12/03 02:45:53;;;;;;;12.52;7.40;;;2.10;99.90;;;;;;5017425;28;20604;-83
2022/12/03 02:48:32;;;;;;;10.70;7.95;;;2.10;99.90;;;;;;5036232;28;20182;-83
2022/12/03 02:51:02;;;;;;;12.27;8.23;;;2.10;99.90;;;;;;5035832;28;20166;-84
2022/12/03 02:53:37;;;;;;;9.85;7.05;;;2.10;99.90;;;;;;5035214;28;20181;-84
2022/12/03 02:56:04;;;;;;;12.25;7.78;;;2.10;99.90;;;;;;5018160;28;20188;-83
2022/12/03 02:58:31;;;;;;;11.05;7.78;;;2.20;99.90;;;;;;5001398;28;20194;-84
2022/12/03 03:00:58;;;;;;;13.38;9.18;;;2.20;99.90;;;;;;5035522;28;20176;-84
2022/12/03 03:03:26;;;;;;;12.52;7.78;;;2.10;99.90;;;;;;5001571;28;20191;-84
2022/12/03 03:05:55;;;;;;;10.32;7.80;;;2.10;99.90;;;;;;5035328;28;20575;-83
2022/12/03 03:08:21;;;;;;;11.43;7.88;;;2.00;99.90;;;;;;5017696;28;20223;-84
2022/12/03 03:10:48;;;;;;;12.07;7.57;;;2.00;99.90;;;;;;5017679;28;20278;-83
2022/12/03 03:13:16;;;;;;;11.95;8.32;;;2.00;99.90;;;;;;5017528;28;20173;-84
2022/12/03 03:15:42;;;;;;;10.77;8.05;;;2.10;99.90;;;;;;5035055;28;20185;-83
2022/12/03 03:18:09;;;;;;;13.70;9.18;;;2.10;99.90;;;;;;5017688;28;20189;-83
2022/12/03 03:20:35;;;;;;;12.10;8.35;;;2.00;99.90;;;;;;5017565;28;20186;-83
2022/12/03 03:23:10;;;;;;;13.93;8.38;;;2.10;99.90;;;;;;5000758;28;20275;-84
2022/12/03 03:25:38;;;;;;;10.10;6.60;;;2.00;99.90;;;;;;5017170;28;20212;-83
2022/12/03 03:28:04;;;;;;;8.35;6.47;;;2.00;99.90;;;;;;5017568;28;20243;-84
2022/12/03 03:30:30;;;;;;;11.88;8.95;;;2.00;99.90;;;;;;5017683;28;20216;-83
2022/12/03 03:32:56;;;;;;;11.18;7.75;;;2.00;99.90;;;;;;5034804;28;20193;-83
2022/12/03 03:35:24;;;;;;;10.80;7.43;;;2.10;99.90;;;;;;5035413;28;20181;-84
2022/12/03 03:37:50;;;;;;;10.38;7.50;;;2.10;99.90;;;;;;5034820;28;20498;-84
2022/12/03 03:40:16;;;;;;;12.32;7.38;;;2.10;99.90;;;;;;5017833;28;20651;-83
2022/12/03 03:42:42;;;;;;;11.00;6.80;;;2.10;99.90;;;;;;5018581;28;20186;-84
2022/12/03 03:45:08;;;;;;;10.40;7.33;;;2.10;99.90;;;;;;5001563;28;20212;-83
2022/12/03 03:47:34;;;;;;;9.40;6.65;;;2.10;99.90;;;;;;5035096;28;20183;-84
2022/12/03 03:50:01;;;;;;;11.57;8.52;;;2.10;99.90;;;;;;5035045;28;20181;-84
2022/12/03 03:52:26;;;;;;;9.90;7.00;;;2.10;99.90;;;;;;5000736;28;20182;-84
2022/12/03 03:54:52;;;;;;;11.60;7.80;;;2.20;99.90;;;;;;5016532;28;20189;-84
2022/12/03 03:57:18;;;;;;;11.67;7.30;;;2.20;99.90;;;;;;4988096;28;20541;-84
2022/12/03 03:59:43;;;;;;;10.80;7.10;;;2.20;99.90;;;;;;5020578;28;20234;-83
2022/12/03 04:02:20;;;;;;;10.10;7.87;;;2.10;99.90;;;;;;4988572;28;20777;-84
2022/12/03 04:04:46;;;;;;;8.98;7.00;;;2.20;99.90;;;;;;5020746;28;20200;-84
2022/12/03 04:07:12;;;;;;;10.60;7.10;;;2.10;99.90;;;;;;5020809;28;20234;-84
2022/12/03 04:09:38;;;;;;;11.90;6.78;;;2.20;99.90;;;;;;5020482;28;20197;-84
2022/12/03 04:14:48;;;;;;;10.85;8.13;;;2.20;99.90;;;;;;5037868;28;20263;-84
2022/12/03 04:17:13;;;;;;;10.90;7.67;;;2.20;99.90;;;;;;5004028;28;20189;-84
2022/12/03 04:19:39;;;;;;;10.47;7.30;;;2.20;99.90;;;;;;5019948;28;20185;-83
2022/12/03 04:24:48;;;;;;;9.73;7.05;;;2.20;99.90;;;;;;5009145;28;20576;-84
2022/12/03 04:29:58;;;;;;;11.23;7.32;;;2.20;99.90;;;;;;5022470;28;20173;-84
2022/12/03 04:37:52;;;;;;;12.43;7.30;;;2.20;99.90;;;;;;5022650;28;20633;-84
2022/12/03 04:43:02;;;;;;;13.20;8.70;;;2.30;99.90;;;;;;5022755;28;20172;-84
2022/12/03 04:45:28;;;;;;;17.63;7.67;;;2.20;99.90;;;;;;5037432;28;20658;-84
2022/12/03 04:47:53;;;;;;;10.70;7.77;;;2.20;99.90;;;;;;5020142;28;20193;-84
2022/12/03 04:50:19;;;;;;;11.77;7.47;;;2.20;99.90;;;;;;5004048;28;20188;-84
2022/12/03 04:52:44;;;;;;;14.00;9.10;;;2.30;99.90;;;;;;5020237;28;20182;-84
2022/12/03 04:55:10;;;;;;;10.23;7.23;;;2.20;99.90;;;;;;5020184;28;20178;-84
2022/12/03 04:57:35;;;;;;;12.07;8.40;;;2.20;99.90;;;;;;5038027;28;20639;-84
2022/12/03 05:00:03;;;;;;;13.40;8.03;;;2.30;99.90;;;;;;5019607;28;20187;-84
2022/12/03 05:02:28;;;;;;;13.73;8.60;;;2.30;99.90;;;;;;5004467;28;20188;-84
2022/12/03 05:04:54;;;;;;;13.87;8.63;;;2.30;99.90;;;;;;5020776;28;20246;-84
2022/12/03 05:07:19;;;;;;;12.57;8.17;;;2.30;99.90;;;;;;5005546;28;20237;-84
2022/12/03 05:09:45;;;;;;;14.40;9.50;;;2.20;99.90;;;;;;5004943;28;20636;-84
2022/12/03 05:12:10;;;;;;;11.53;8.07;;;2.30;99.90;;;;;;5020509;28;20180;-84
2022/12/03 05:14:36;;;;;;;17.03;10.47;;;2.20;99.90;;;;;;5020002;28;20182;-84
2022/12/03 05:17:01;;;;;;;13.47;8.30;;;2.20;99.90;;;;;;5036910;28;20264;-84
2022/12/03 05:22:11;;;;;;;12.75;8.00;;;2.20;99.90;;;;;;5022611;28;20177;-84
2022/12/03 05:24:37;;;;;;;14.77;9.40;;;2.10;99.90;;;;;;5019735;28;20212;-84
2022/12/03 05:27:02;;;;;;;15.03;9.40;;;2.10;99.90;;;;;;5002998;28;20653;-84
2022/12/03 05:29:28;;;;;;;12.20;8.43;;;2.10;99.90;;;;;;4986522;28;20181;-84
2022/12/03 05:31:53;;;;;;;15.70;9.90;;;2.10;99.90;;;;;;5002405;28;20184;-83
2022/12/03 05:34:19;;;;;;;15.77;10.63;;;2.10;99.90;;;;;;5019756;28;20662;-84
2022/12/03 05:36:44;;;;;;;14.17;8.70;;;2.10;99.90;;;;;;5019148;28;20258;-83
2022/12/03 05:39:10;;;;;;;14.63;8.90;;;2.10;99.90;;;;;;5019027;28;20204;-84
2022/12/03 05:44:20;;;;;;;12.50;9.50;;;2.10;99.90;;;;;;5008240;28;20208;-84
2022/12/03 05:46:45;;;;;;;14.90;9.90;;;2.20;99.90;;;;;;5036468;28;20185;-83
2022/12/03 05:49:11;;;;;;;13.40;9.40;;;2.10;99.90;;;;;;5036444;28;20205;-84
2022/12/03 05:51:36;;;;;;;15.63;9.37;;;2.10;99.90;;;;;;5019271;28;20536;-84
2022/12/03 05:54:02;;;;;;;11.57;8.57;;;2.00;99.90;;;;;;5002669;28;20564;-84
2022/12/03 05:56:27;;;;;;;14.30;8.73;;;2.10;99.90;;;;;;5019784;28;20190;-84
2022/12/03 05:58:53;;;;;;;15.23;9.13;;;2.10;99.90;;;;;;5002938;28;20188;-84
2022/12/03 06:01:18;;;;;;;13.00;8.83;;;2.10;99.90;;;;;;5036840;28;20680;-84
2022/12/03 06:03:44;;;;;;;12.03;8.37;;;2.10;99.90;;;;;;5002463;28;20235;-83
2022/12/03 06:06:09;;;;;;;15.60;9.47;;;2.20;99.90;;;;;;4985702;28;20219;-83
2022/12/03 06:08:35;;;;;;;14.97;10.10;;;2.20;99.90;;;;;;5014949;28;20690;-84
2022/12/03 06:11:16;;;;;;;16.05;10.40;;;2.20;99.90;;;;;;4979340;28;20269;-84
2022/12/03 06:13:41;;;;;;;15.57;9.90;;;2.10;99.90;;;;;;5015059;28;20178;-84
2022/12/03 06:16:07;;;;;;;14.57;10.37;;;2.10;99.90;;;;;;4998565;28;20187;-84
2022/12/03 06:18:32;;;;;;;14.63;8.87;;;2.20;99.90;;;;;;5014377;28;20581;-84
2022/12/03 06:20:58;;;;;;;18.80;9.87;;;2.20;99.90;;;;;;4998616;28;20213;-84
2022/12/03 06:23:23;;;;;;;18.83;11.70;;;2.20;99.90;;;;;;5015939;28;20806;-84
2022/12/03 06:25:49;;;;;;;15.80;10.03;;;2.20;99.90;;;;;;5014304;28;20566;-84
2022/12/03 06:28:14;;;;;;;16.27;11.00;;;2.30;99.90;;;;;;4998501;28;20201;-84
2022/12/03 06:30:40;;;;;;;20.70;9.93;;;2.20;99.90;;;;;;5014995;28;20194;-84
2022/12/03 06:33:06;;;;;;;18.13;10.40;;;2.20;99.90;;;;;;5014228;28;20193;-84
2022/12/03 06:35:31;;;;;;;16.50;10.30;;;2.20;99.90;;;;;;4998404;28;20607;-83
2022/12/03 06:37:57;;;;;;;18.57;11.20;;;2.10;99.90;;;;;;4998091;28;20538;-84
2022/12/03 06:40:23;;;;;;;20.67;11.10;;;2.10;99.90;;;;;;5014117;28;20269;-84
2022/12/03 06:42:49;;;;;;;17.42;10.25;;;2.10;99.90;;;;;;4998114;28;20191;-84
2022/12/03 06:45:15;;;;;;;16.00;10.00;;;2.20;99.90;;;;;;5015535;28;20218;-84
2022/12/03 06:47:40;;;;;;;18.17;11.10;;;2.20;99.90;;;;;;4998583;28;20192;-84
2022/12/03 06:50:07;;;;;;;18.80;12.00;;;2.10;99.90;;;;;;4997893;28;20206;-84
2022/12/03 06:52:33;;;;;;;16.00;10.55;;;2.10;99.90;;;;;;5014313;28;20186;-84
2022/12/03 06:54:59;;;;;;;16.88;10.55;;;2.20;99.90;;;;;;4998134;28;20194;-83
2022/12/03 06:57:25;;;;;;;18.10;12.00;;;2.10;99.90;;;;;;5014441;28;20246;-84
2022/12/03 06:59:50;;;;;;;17.57;10.27;;;2.10;99.90;;;;;;5014119;28;20425;-84
2022/12/03 07:02:16;;;;;;;19.00;11.67;;;2.20;99.90;;;;;;4997798;28;20276;-84
2022/12/03 07:04:42;;;;;;;16.90;11.30;;;2.10;99.90;;;;;;5013897;28;20545;-84
2022/12/03 07:07:07;;;;;;;17.53;11.00;;;2.10;99.90;;;;;;5020492;28;20594;-84
2022/12/03 07:09:33;;;;;;;16.93;11.23;;;2.10;99.90;;;;;;5001194;28;20186;-84
2022/12/03 07:11:58;;;;;;;18.90;10.90;;;2.10;99.90;;;;;;5034591;28;20192;-84
2022/12/03 07:14:24;;;;;;;19.30;12.47;;;2.10;99.90;;;;;;5000731;28;20238;-84
2022/12/03 07:16:49;;;;;;;17.90;10.20;;;2.10;99.90;;;;;;5000343;28;20229;-83
2022/12/03 07:19:15;;;;;;;19.47;11.03;;;2.20;99.90;;;;;;5017257;28;20193;-83
2022/12/03 07:21:41;;;;;;;23.20;11.47;;;2.20;99.90;;;;;;5017143;28;20184;-84
2022/12/03 07:24:07;;;;;;;17.70;11.97;;;2.20;99.90;;;;;;5016874;28;20192;-84
2022/12/03 07:26:32;;;;;;;17.40;11.30;;;2.20;99.90;;;;;;5034764;28;20209;-84
2022/12/03 07:28:58;;;;;;;20.97;10.60;;;2.20;99.90;;;;;;5000762;28;20369;-84
2022/12/03 07:31:23;;;;;;;18.53;9.70;;;2.20;99.90;;;;;;5004038;28;20183;-84
2022/12/03 07:33:49;;;;;;;19.57;12.27;;;2.10;99.90;;;;;;5041061;28;20187;-83
2022/12/03 07:36:15;;;;;;;20.27;11.53;;;2.20;99.90;;;;;;5023876;28;20225;-84
2022/12/03 07:38:40;;;;;;;19.10;10.47;;;2.20;99.90;;;;;;5006850;28;20550;-84
2022/12/03 07:41:06;;;;;;;19.77;9.80;;;2.20;99.90;;;;;;5040971;28;20222;-84
2022/12/03 07:43:32;;;;;;;19.97;11.57;;;2.20;99.90;;;;;;5023216;28;20190;-84
2022/12/03 07:45:57;;;;;;;20.33;11.03;;;2.20;99.90;;;;;;5040562;28;20210;-84
2022/12/03 07:48:23;;;;;;;18.53;10.60;;;2.20;99.90;;;;;;5022722;28;20239;-84
2022/12/03 07:50:48;;;;;;;19.00;10.13;;;2.20;99.90;;;;;;5006800;28;20217;-84
2022/12/03 07:53:14;;;;;;;18.70;9.53;;;2.20;99.90;;;;;;5006633;28;20212;-84
2022/12/03 07:55:39;;;;;;;18.00;10.47;;;2.20;99.90;;;;;;5022891;28;20195;-84
2022/12/03 07:58:06;;;;;;;15.73;8.60;;;2.30;99.90;;;;;;4990530;28;20209;-84
2022/12/03 08:00:31;;;;;;;15.27;9.98;;;2.30;99.90;;;;;;5007238;28;20591;-84
2022/12/03 08:02:57;;;;;;;16.83;9.60;;;2.30;99.90;;;;;;5040697;28;20201;-84
2022/12/03 08:05:22;;;;;;;19.03;11.00;;;2.30;99.90;;;;;;5040535;28;20209;-84
2022/12/03 08:07:48;;;;;;;16.93;9.83;;;2.20;99.90;;;;;;4990350;28;20746;-84
2022/12/03 08:10:13;;;;;;;18.07;10.07;;;2.20;99.90;;;;;;5040699;28;20173;-84
2022/12/03 08:12:39;;;;;;;19.30;11.70;;;2.20;99.90;;;;;;5040909;28;20580;-84
2022/12/03 08:15:17;;;;;;;14.77;9.33;;;2.20;99.90;;;;;;5022870;28;20189;-84
2022/12/03 08:17:45;;;;;;;15.82;10.00;;;2.20;99.90;;;;;;5023027;28;20192;-84
2022/12/03 08:20:15;;;;;;;19.50;11.00;;;2.20;99.90;;;;;;5020311;28;20694;-83
2022/12/03 08:22:42;;;;;;;21.75;11.98;;;2.20;99.90;;;;;;5036269;28;20166;-84
2022/12/03 08:25:23;;;;;;;21.40;10.80;;;2.30;99.90;;;;;;5036170;28;20218;-82
2022/12/03 08:27:51;;;;;;;14.70;9.52;;;2.30;99.90;;;;;;5036851;28;20265;-83
2022/12/03 08:30:17;;;;;;;17.70;9.73;;;2.20;99.90;;;;;;5004186;28;20185;-84
2022/12/03 08:32:44;;;;;;;14.95;9.23;;;2.20;99.90;;;;;;5022746;28;20177;-83
2022/12/03 08:35:09;;;;;;;16.95;9.85;;;2.20;99.90;;;;;;5022573;28;20189;-84
2022/12/03 08:37:35;;;;;;;18.57;10.67;;;2.30;99.90;;;;;;5022509;28;20178;-84
2022/12/03 08:40:01;;;;;;;18.53;10.50;;;2.30;99.90;;;;;;5022582;28;20526;-84
2022/12/03 08:42:42;;;;;;;16.17;9.70;;;2.30;99.90;;;;;;5003917;28;20184;-84
2022/12/03 08:45:38;;;;;;;15.75;9.23;;;2.30;99.90;;;;;;5021192;28;20460;-84
2022/12/03 08:48:33;;;;;;;14.68;8.68;;;2.30;99.90;;;;;;5019009;28;20194;-84
2022/12/03 08:51:19;;;;;;;14.68;9.82;;;2.30;99.90;;;;;;5019372;28;20192;-84
2022/12/03 08:53:49;;;;;;;22.17;10.52;;;2.30;99.90;;;;;;5037094;28;20168;-84
2022/12/03 08:56:29;;;;;;;15.70;9.68;;;2.40;99.90;;;;;;5036904;28;20232;-84
2022/12/03 08:58:59;;;;;;;13.55;8.77;;;2.50;99.90;;;;;;5018922;28;20181;-84
2022/12/03 09:01:30;;;;;;;18.85;9.73;;;2.60;99.90;;;;;;5019343;28;20630;-84
2022/12/03 09:04:18;;;;;;;15.55;8.63;;;2.50;99.90;;;;;;5019247;28;20186;-84
2022/12/03 09:06:43;;;;;;;17.50;10.35;;;2.50;99.90;;;;;;5005037;28;20206;-84
2022/12/03 09:09:09;;;;;;;14.57;9.60;;;2.50;99.90;;;;;;5036531;28;20215;-84
2022/12/03 09:11:35;;;;;;;15.73;9.03;;;2.70;99.90;;;;;;5037019;28;20627;-84
2022/12/03 09:14:00;;;;;;;17.70;9.57;;;2.60;99.90;;;;;;5002254;28;20192;-84
2022/12/03 09:16:26;;;;;;;14.03;8.80;;;2.70;99.90;;;;;;5036498;28;20178;-84
2022/12/03 09:18:53;;;;;;;13.65;7.90;;;2.70;99.90;;;;;;5036526;28;20179;-84
2022/12/03 09:21:19;;;;;;;13.80;8.85;;;2.80;99.90;;;;;;5002908;28;20232;-84
2022/12/03 09:23:45;;;;;;;16.23;9.60;;;2.70;99.90;;;;;;5002676;28;20216;-84
2022/12/03 09:26:10;;;;;;;17.10;9.97;;;2.80;99.90;;;;;;5018982;28;20223;-84
2022/12/03 09:28:36;;;;;;;19.70;11.03;;;2.80;99.90;;;;;;5018578;28;20178;-84
2022/12/03 09:31:01;;;;;;;14.70;9.50;;;2.90;99.90;;;;;;5018681;28;20181;-83
2022/12/03 09:33:28;;;;;;;14.40;8.67;;;2.80;99.90;;;;;;5019359;28;20710;-84
2022/12/03 09:35:53;;;;;;;14.20;9.15;;;2.90;99.90;;;;;;5018911;28;20244;-84
2022/12/03 09:38:19;;;;;;;15.23;9.10;;;2.90;99.90;;;;;;5018457;28;20595;-84
2022/12/03 09:40:44;;;;;;;11.60;7.83;;;2.90;99.90;;;;;;5036429;28;20181;-84
2022/12/03 09:43:11;;;;;;;16.90;8.90;;;3.00;99.90;;;;;;4986161;28;20277;-84
2022/12/03 09:45:36;;;;;;;15.52;10.10;;;3.00;99.90;;;;;;5018698;28;20565;-84
2022/12/03 09:48:05;;;;;;;13.20;8.10;;;3.10;99.90;;;;;;5001770;28;20189;-84
2022/12/03 09:50:31;;;;;;;15.60;9.32;;;3.10;99.90;;;;;;5002465;28;20244;-84
2022/12/03 09:53:02;;;;;;;14.32;7.93;;;3.20;99.90;;;;;;5017822;28;20204;-83
2022/12/03 09:55:28;;;;;;;14.90;8.10;;;3.10;99.90;;;;;;5035665;28;20169;-84
2022/12/03 09:57:55;;;;;;;12.60;8.48;;;3.10;99.90;;;;;;5001713;28;20192;-84
2022/12/03 10:00:27;;;;;;;14.65;9.10;;;3.10;99.90;;;;;;5035607;28;20174;-84
2022/12/03 10:02:57;;;;;;;14.57;8.73;;;3.10;99.90;;;;;;5035906;28;20256;-84
2022/12/03 10:05:23;;;;;;;13.38;8.95;;;3.20;99.90;;;;;;5018050;28;20654;-84
2022/12/03 10:07:50;;;;;;;15.95;8.98;;;3.30;99.90;;;;;;5014290;28;20321;-84
2022/12/03 10:10:22;;;;;;;12.82;8.35;;;3.30;99.90;;;;;;5014202;28;20186;-84
2022/12/03 10:12:52;;;;;;;18.25;8.43;;;3.30;99.90;;;;;;5016199;28;20167;-84
2022/12/03 10:15:20;;;;;;;14.38;8.25;;;3.30;99.90;;;;;;5014132;28;20191;-84
2022/12/03 10:17:48;;;;;;;14.07;8.35;;;3.30;99.90;;;;;;5016220;28;20288;-84
2022/12/03 10:20:15;;;;;;;17.27;8.40;;;3.30;99.90;;;;;;5014388;28;20187;-83
2022/12/03 10:22:41;;;;;;;12.80;7.80;;;3.30;99.90;;;;;;4998307;28;20187;-84
2022/12/03 10:25:11;;;;;;;11.10;7.40;;;3.40;99.90;;;;;;5015514;28;20722;-83
2022/12/03 10:27:37;;;;;;;12.95;8.70;;;3.50;99.90;;;;;;5015620;28;20169;-84
2022/12/03 10:30:18;;;;;;;15.73;8.65;;;3.50;99.90;;;;;;5014065;28;20237;-84
2022/12/03 10:32:49;;;;;;;17.70;9.63;;;3.50;99.90;;;;;;5014209;28;20179;-84
2022/12/03 10:35:46;;;;;;;13.95;9.52;;;3.60;99.90;;;;;;5015198;28;20189;-84
2022/12/03 10:38:21;;;;;;;12.40;7.90;;;3.60;99.90;;;;;;5012342;28;20197;-84
2022/12/03 10:40:47;;;;;;;14.00;8.80;;;3.50;99.90;;;;;;5015320;28;20170;-84
2022/12/03 10:43:18;;;;;;;14.00;8.40;;;3.60;99.90;;;;;;5014964;28;20175;-84
2022/12/03 10:45:45;;;;;;;11.60;7.50;;;3.60;99.90;;;;;;5014178;28;20525;-83
2022/12/03 10:48:13;;;;;;;12.05;7.72;;;3.50;99.90;;;;;;4997386;28;20195;-84
2022/12/03 10:50:51;;;;;;;15.20;8.50;;;3.60;99.90;;;;;;5013539;28;20183;-84
2022/12/03 10:53:18;;;;;;;14.60;8.55;;;3.70;99.90;;;;;;5014068;28;20198;-84
2022/12/03 10:55:45;;;;;;;13.18;8.52;;;3.70;99.90;;;;;;5014022;28;20182;-84
2022/12/03 10:58:19;;;;;;;12.55;8.63;;;3.90;99.90;;;;;;5013350;28;20209;-84
2022/12/03 11:00:44;;;;;;;13.40;8.68;;;3.90;99.90;;;;;;5014830;28;20163;-84
2022/12/03 11:03:19;;;;;;;12.50;8.03;;;4.00;99.90;;;;;;4997207;28;20610;-84
2022/12/03 11:05:44;;;;;;;15.40;8.38;;;4.00;99.90;;;;;;5013139;28;20206;-84
2022/12/03 11:08:19;;;;;;;14.97;8.50;;;4.00;99.90;;;;;;4980408;28;20241;-84
2022/12/03 11:10:54;;;;;;;14.00;8.27;;;4.00;99.90;;;;;;5014110;28;20472;-84
2022/12/03 11:13:28;;;;;;;11.27;8.38;;;4.00;99.90;;;;;;5013422;28;20175;-84
2022/12/03 11:15:54;;;;;;;12.63;8.75;;;4.10;99.90;;;;;;5015088;28;20209;-83
2022/12/03 11:18:35;;;;;;;13.38;8.57;;;4.00;99.90;;;;;;4996430;28;20187;-84
2022/12/03 11:21:00;;;;;;;12.65;9.02;;;4.00;99.90;;;;;;5013658;28;20632;-84
2022/12/03 11:23:44;;;;;;;12.30;8.00;;;4.00;99.90;;;;;;5013468;28;20237;-83
2022/12/03 11:26:29;;;;;;;11.90;7.75;;;4.00;99.90;;;;;;5013439;28;20217;-84
2022/12/03 11:28:56;;;;;;;15.20;8.52;;;4.00;99.90;;;;;;5014636;28;20238;-84
2022/12/03 11:31:43;;;;;;;11.73;8.27;;;4.00;99.90;;;;;;5013425;28;20186;-84
2022/12/03 11:34:15;;;;;;;13.85;8.85;;;4.10;99.90;;;;;;5012771;28;20179;-84
2022/12/03 11:37:09;;;;;;;14.80;9.40;;;4.20;99.90;;;;;;5013436;28;20220;-84
2022/12/03 11:39:44;;;;;;;11.55;7.97;;;4.20;99.90;;;;;;5013964;28;20189;-83
2022/12/03 11:42:24;;;;;;;13.57;8.88;;;4.20;99.90;;;;;;5012841;28;20558;-83
2022/12/03 11:45:04;;;;;;;11.98;8.10;;;4.10;99.90;;;;;;5014619;28;20210;-84
2022/12/03 11:47:39;;;;;;;13.80;8.75;;;4.20;99.90;;;;;;5013114;28;20196;-84
2022/12/03 11:50:40;;;;;;;15.18;9.00;;;4.20;99.90;;;;;;5014578;28;20167;-84
2022/12/03 11:53:21;;;;;;;13.02;8.43;;;4.20;99.90;;;;;;5013959;28;20177;-84
2022/12/03 11:56:04;;;;;;;14.05;8.63;;;4.20;99.90;;;;;;5014568;28;20178;-84
2022/12/03 11:58:31;;;;;;;13.15;8.93;;;4.10;99.90;;;;;;5014138;28;20162;-84
2022/12/03 12:01:01;;;;;;;12.98;8.85;;;4.20;99.90;;;;;;5014317;28;20179;-84
2022/12/03 12:03:32;;;;;;;14.45;8.77;;;4.20;99.90;;;;;;5014344;28;20271;-84
2022/12/03 12:06:14;;;;;;;15.80;8.70;;;4.20;99.90;;;;;;5014280;28;20211;-84
2022/12/03 12:09:02;;;;;;;11.05;8.38;;;4.10;99.90;;;;;;5032530;28;20233;-84
2022/12/03 12:11:40;;;;;;;11.52;8.40;;;4.20;99.90;;;;;;5033671;28;20215;-84
2022/12/03 12:14:05;;;;;;;14.60;8.07;;;4.20;99.90;;;;;;4999736;28;20182;-83
2022/12/03 12:16:52;;;;;;;13.43;9.20;;;4.30;99.90;;;;;;5016688;28;20197;-84
2022/12/03 12:19:42;;;;;;;13.18;9.38;;;4.30;99.90;;;;;;5037446;28;20181;-84
2022/12/03 12:22:25;;;;;;;11.70;9.02;;;4.30;99.90;;;;;;5037711;28;20166;-84
2022/12/03 12:24:59;;;;;;;14.38;9.05;;;4.20;99.90;;;;;;5038298;28;20201;-84
2022/12/03 12:27:38;;;;;;;13.75;9.07;;;4.20;99.90;;;;;;5037627;28;20239;-84
2022/12/03 12:30:08;;;;;;;11.93;8.35;;;4.10;99.90;;;;;;5037617;28;20253;-84
2022/12/03 12:32:41;;;;;;;13.90;8.95;;;4.00;99.90;;;;;;5037655;28;20170;-84
2022/12/03 12:35:23;;;;;;;12.82;8.65;;;4.00;99.90;;;;;;5037547;28;20574;-83
2022/12/03 12:38:10;;;;;;;11.43;7.95;;;4.00;99.90;;;;;;5037342;28;20169;-84
2022/12/03 12:40:38;;;;;;;12.80;8.52;;;4.10;99.90;;;;;;5019662;28;20167;-84
2022/12/03 12:43:21;;;;;;;13.15;8.35;;;4.10;99.90;;;;;;5019557;28;20540;-84
2022/12/03 12:45:47;;;;;;;12.63;8.60;;;4.10;99.90;;;;;;5037222;28;20208;-84
2022/12/03 12:48:23;;;;;;;13.40;9.13;;;4.10;99.90;;;;;;5019229;28;20192;-84
2022/12/03 12:51:10;;;;;;;14.95;9.60;;;4.10;99.90;;;;;;5019156;28;20425;-84
2022/12/03 12:53:37;;;;;;;14.98;10.40;;;4.10;99.90;;;;;;5037009;28;20182;-84
2022/12/03 12:56:21;;;;;;;11.25;7.65;;;4.20;99.90;;;;;;5019138;28;20191;-84
2022/12/03 12:58:46;;;;;;;11.48;8.20;;;4.10;99.90;;;;;;5018959;28;20178;-84
2022/12/03 13:01:31;;;;;;;14.13;8.70;;;4.10;99.90;;;;;;5018721;28;20670;-83
2022/12/03 13:03:58;;;;;;;15.70;9.43;;;4.10;99.90;;;;;;5036916;28;20253;-84
2022/12/03 13:06:30;;;;;;;12.35;8.40;;;4.10;99.90;;;;;;5018798;28;20582;-84
2022/12/03 13:08:57;;;;;;;10.55;7.72;;;4.10;99.90;;;;;;4995681;28;20199;-84
2022/12/03 13:11:33;;;;;;;11.27;7.82;;;4.00;99.90;;;;;;4995856;28;20657;-84
2022/12/03 13:14:04;;;;;;;13.13;8.25;;;4.10;99.90;;;;;;4997300;28;20168;-84
2022/12/03 13:16:34;;;;;;;14.73;9.80;;;4.10;99.90;;;;;;4996579;28;20173;-83
2022/12/03 13:19:00;;;;;;;17.85;10.38;;;4.00;99.90;;;;;;4995898;28;20189;-83